sensor_id;sensor_type;location;lat;lon;timestamp;P1;durP1;ratioP1;P2;durP2;ratioP2
66478;SDS011;53294;47.912;13.526;2023-12-14T00:00:09;0.10;;;0.03;;
66478;SDS011;53294;47.912;13.526;2023-12-14T00:02:36;0.10;;;0.08;;
66478;SDS011;53294;47.912;13.526;2023-12-14T00:07:30;0.10;;;0.05;;
66478;SDS011;53294;47.912;13.526;2023-12-14T00:09:57;0.08;;;0.00;;
66478;SDS011;53294;47.912;13.526;2023-12-14T00:12:24;1.55;;;0.20;;
66478;SDS011;53294;47.912;13.526;2023-12-14T00:14:50;0.13;;;0.00;;
66478;SDS011;53294;47.912;13.526;2023-12-14T00:17:17;0.22;;;0.10;;
66478;SDS011;53294;47.912;13.526;2023-12-14T00:19:44;0.10;;;0.10;;
66478;SDS011;53294;47.912;13.526;2023-12-14T00:22:11;0.20;;;0.10;;
66478;SDS011;53294;47.912;13.526;2023-12-14T00:24:38;0.00;;;0.00;;
66478;SDS011;53294;47.912;13.526;2023-12-14T00:27:05;0.00;;;0.00;;
66478;SDS011;53294;47.912;13.526;2023-12-14T00:29:32;0.10;;;0.00;;
66478;SDS011;53294;47.912;13.526;2023-12-14T00:31:58;0.10;;;0.10;;
66478;SDS011;53294;47.912;13.526;2023-12-14T00:34:25;0.35;;;0.03;;
66478;SDS011;53294;47.912;13.526;2023-12-14T00:36:52;0.20;;;0.20;;
66478;SDS011;53294;47.912;13.526;2023-12-14T00:39:19;0.00;;;0.00;;
66478;SDS011;53294;47.912;13.526;2023-12-14T00:41:45;0.00;;;0.00;;
66478;SDS011;53294;47.912;13.526;2023-12-14T00:44:12;0.10;;;0.10;;
66478;SDS011;53294;47.912;13.526;2023-12-14T00:46:39;0.08;;;0.08;;
66478;SDS011;53294;47.912;13.526;2023-12-14T00:49:07;0.00;;;0.00;;
66478;SDS011;53294;47.912;13.526;2023-12-14T00:51:34;0.10;;;0.00;;
66478;SDS011;53294;47.912;13.526;2023-12-14T00:54:01;0.00;;;0.00;;
66478;SDS011;53294;47.912;13.526;2023-12-14T00:56:28;0.00;;;0.00;;
66478;SDS011;53294;47.912;13.526;2023-12-14T00:58:54;0.00;;;0.00;;
66478;SDS011;53294;47.912;13.526;2023-12-14T01:01:21;0.20;;;0.20;;
66478;SDS011;53294;47.912;13.526;2023-12-14T01:03:48;0.20;;;0.05;;
66478;SDS011;53294;47.912;13.526;2023-12-14T01:06:15;0.00;;;0.00;;
66478;SDS011;53294;47.912;13.526;2023-12-14T01:08:42;0.80;;;0.10;;
66478;SDS011;53294;47.912;13.526;2023-12-14T01:11:08;0.00;;;0.00;;
66478;SDS011;53294;47.912;13.526;2023-12-14T01:13:35;0.00;;;0.00;;
66478;SDS011;53294;47.912;13.526;2023-12-14T01:16:02;0.15;;;0.10;;
66478;SDS011;53294;47.912;13.526;2023-12-14T01:18:29;0.50;;;0.20;;
66478;SDS011;53294;47.912;13.526;2023-12-14T01:20:56;0.10;;;0.10;;
66478;SDS011;53294;47.912;13.526;2023-12-14T01:23:22;0.30;;;0.10;;
66478;SDS011;53294;47.912;13.526;2023-12-14T01:25:49;0.22;;;0.10;;
66478;SDS011;53294;47.912;13.526;2023-12-14T01:28:16;0.45;;;0.13;;
66478;SDS011;53294;47.912;13.526;2023-12-14T01:30:42;0.43;;;0.20;;
66478;SDS011;53294;47.912;13.526;2023-12-14T01:33:09;0.08;;;0.00;;
66478;SDS011;53294;47.912;13.526;2023-12-14T01:35:36;0.00;;;0.00;;
66478;SDS011;53294;47.912;13.526;2023-12-14T01:38:03;0.00;;;0.00;;
66478;SDS011;53294;47.912;13.526;2023-12-14T01:40:30;0.05;;;0.00;;
66478;SDS011;53294;47.912;13.526;2023-12-14T01:43:15;0.32;;;0.00;;
66478;SDS011;53294;47.912;13.526;2023-12-14T01:45:41;0.08;;;0.00;;
66478;SDS011;53294;47.912;13.526;2023-12-14T01:48:08;0.00;;;0.00;;
66478;SDS011;53294;47.912;13.526;2023-12-14T01:50:35;0.30;;;0.00;;
66478;SDS011;53294;47.912;13.526;2023-12-14T01:53:02;0.45;;;0.08;;
66478;SDS011;53294;47.912;13.526;2023-12-14T01:55:29;0.00;;;0.00;;
66478;SDS011;53294;47.912;13.526;2023-12-14T01:57:56;0.10;;;0.10;;
66478;SDS011;53294;47.912;13.526;2023-12-14T02:03:16;0.10;;;0.00;;
66478;SDS011;53294;47.912;13.526;2023-12-14T02:05:43;0.70;;;0.20;;
66478;SDS011;53294;47.912;13.526;2023-12-14T02:08:10;0.40;;;0.20;;
66478;SDS011;53294;47.912;13.526;2023-12-14T02:10:36;0.10;;;0.08;;
66478;SDS011;53294;47.912;13.526;2023-12-14T02:13:03;0.00;;;0.00;;
66478;SDS011;53294;47.912;13.526;2023-12-14T02:15:30;0.00;;;0.00;;
66478;SDS011;53294;47.912;13.526;2023-12-14T02:17:57;0.03;;;0.00;;
66478;SDS011;53294;47.912;13.526;2023-12-14T02:20:23;0.20;;;0.10;;
66478;SDS011;53294;47.912;13.526;2023-12-14T02:22:54;0.00;;;0.00;;
66478;SDS011;53294;47.912;13.526;2023-12-14T02:25:21;0.10;;;0.00;;
66478;SDS011;53294;47.912;13.526;2023-12-14T02:27:49;0.00;;;0.00;;
66478;SDS011;53294;47.912;13.526;2023-12-14T02:30:17;0.00;;;0.00;;
66478;SDS011;53294;47.912;13.526;2023-12-14T02:35:11;0.17;;;0.10;;
66478;SDS011;53294;47.912;13.526;2023-12-14T02:37:38;0.10;;;0.10;;
66478;SDS011;53294;47.912;13.526;2023-12-14T02:40:07;0.10;;;0.00;;
66478;SDS011;53294;47.912;13.526;2023-12-14T02:42:35;0.10;;;0.10;;
66478;SDS011;53294;47.912;13.526;2023-12-14T02:47:29;1.80;;;0.30;;
66478;SDS011;53294;47.912;13.526;2023-12-14T02:49:56;0.05;;;0.03;;
66478;SDS011;53294;47.912;13.526;2023-12-14T02:52:23;0.03;;;0.03;;
66478;SDS011;53294;47.912;13.526;2023-12-14T02:54:50;0.25;;;0.15;;
66478;SDS011;53294;47.912;13.526;2023-12-14T02:57:17;0.32;;;0.17;;
66478;SDS011;53294;47.912;13.526;2023-12-14T02:59:44;0.00;;;0.00;;
66478;SDS011;53294;47.912;13.526;2023-12-14T03:02:10;0.10;;;0.10;;
66478;SDS011;53294;47.912;13.526;2023-12-14T03:04:38;0.32;;;0.20;;
66478;SDS011;53294;47.912;13.526;2023-12-14T03:07:06;0.30;;;0.30;;
66478;SDS011;53294;47.912;13.526;2023-12-14T03:09:33;0.22;;;0.17;;
66478;SDS011;53294;47.912;13.526;2023-12-14T03:12:00;0.20;;;0.20;;
66478;SDS011;53294;47.912;13.526;2023-12-14T03:14:31;0.20;;;0.10;;
66478;SDS011;53294;47.912;13.526;2023-12-14T03:16:59;1.02;;;0.30;;
66478;SDS011;53294;47.912;13.526;2023-12-14T03:19:26;0.05;;;0.05;;
66478;SDS011;53294;47.912;13.526;2023-12-14T03:21:52;0.10;;;0.10;;
66478;SDS011;53294;47.912;13.526;2023-12-14T03:24:20;0.20;;;0.10;;
66478;SDS011;53294;47.912;13.526;2023-12-14T03:26:47;0.15;;;0.08;;
66478;SDS011;53294;47.912;13.526;2023-12-14T03:29:13;0.45;;;0.32;;
66478;SDS011;53294;47.912;13.526;2023-12-14T03:31:40;0.73;;;0.28;;
66478;SDS011;53294;47.912;13.526;2023-12-14T03:34:07;0.40;;;0.20;;
66478;SDS011;53294;47.912;13.526;2023-12-14T03:36:34;0.73;;;0.20;;
66478;SDS011;53294;47.912;13.526;2023-12-14T03:39:00;0.47;;;0.30;;
66478;SDS011;53294;47.912;13.526;2023-12-14T03:41:27;0.10;;;0.10;;
66478;SDS011;53294;47.912;13.526;2023-12-14T03:43:54;0.10;;;0.10;;
66478;SDS011;53294;47.912;13.526;2023-12-14T03:46:21;0.98;;;0.13;;
66478;SDS011;53294;47.912;13.526;2023-12-14T03:48:47;0.20;;;0.10;;
66478;SDS011;53294;47.912;13.526;2023-12-14T03:51:17;0.65;;;0.40;;
66478;SDS011;53294;47.912;13.526;2023-12-14T03:53:47;0.20;;;0.10;;
66478;SDS011;53294;47.912;13.526;2023-12-14T03:56:14;0.28;;;0.25;;
66478;SDS011;53294;47.912;13.526;2023-12-14T03:58:40;0.15;;;0.05;;
66478;SDS011;53294;47.912;13.526;2023-12-14T04:01:07;0.17;;;0.10;;
66478;SDS011;53294;47.912;13.526;2023-12-14T04:03:34;0.20;;;0.10;;
66478;SDS011;53294;47.912;13.526;2023-12-14T04:06:01;0.28;;;0.13;;
66478;SDS011;53294;47.912;13.526;2023-12-14T04:08:27;0.98;;;0.43;;
66478;SDS011;53294;47.912;13.526;2023-12-14T04:10:54;0.55;;;0.28;;
66478;SDS011;53294;47.912;13.526;2023-12-14T04:13:21;0.13;;;0.10;;
66478;SDS011;53294;47.912;13.526;2023-12-14T04:15:48;0.10;;;0.10;;
66478;SDS011;53294;47.912;13.526;2023-12-14T04:18:15;0.30;;;0.20;;
66478;SDS011;53294;47.912;13.526;2023-12-14T04:20:41;0.52;;;0.20;;
66478;SDS011;53294;47.912;13.526;2023-12-14T04:23:08;0.20;;;0.13;;
66478;SDS011;53294;47.912;13.526;2023-12-14T04:25:35;0.15;;;0.15;;
66478;SDS011;53294;47.912;13.526;2023-12-14T04:28:02;0.52;;;0.45;;
66478;SDS011;53294;47.912;13.526;2023-12-14T04:30:29;0.77;;;0.28;;
66478;SDS011;53294;47.912;13.526;2023-12-14T04:32:55;0.20;;;0.20;;
66478;SDS011;53294;47.912;13.526;2023-12-14T04:35:22;0.20;;;0.20;;
66478;SDS011;53294;47.912;13.526;2023-12-14T04:37:49;0.00;;;0.00;;
66478;SDS011;53294;47.912;13.526;2023-12-14T04:40:16;0.32;;;0.30;;
66478;SDS011;53294;47.912;13.526;2023-12-14T04:42:42;0.00;;;0.00;;
66478;SDS011;53294;47.912;13.526;2023-12-14T04:45:09;0.45;;;0.10;;
66478;SDS011;53294;47.912;13.526;2023-12-14T04:47:36;0.95;;;0.20;;
66478;SDS011;53294;47.912;13.526;2023-12-14T04:50:03;0.52;;;0.28;;
66478;SDS011;53294;47.912;13.526;2023-12-14T04:52:30;0.80;;;0.22;;
66478;SDS011;53294;47.912;13.526;2023-12-14T04:54:57;0.35;;;0.20;;
66478;SDS011;53294;47.912;13.526;2023-12-14T04:57:24;0.43;;;0.22;;
66478;SDS011;53294;47.912;13.526;2023-12-14T04:59:51;2.40;;;0.47;;
66478;SDS011;53294;47.912;13.526;2023-12-14T05:02:17;0.30;;;0.20;;
66478;SDS011;53294;47.912;13.526;2023-12-14T05:04:44;0.52;;;0.20;;
66478;SDS011;53294;47.912;13.526;2023-12-14T05:07:11;0.03;;;0.00;;
66478;SDS011;53294;47.912;13.526;2023-12-14T05:09:37;1.45;;;0.20;;
66478;SDS011;53294;47.912;13.526;2023-12-14T05:12:04;0.13;;;0.10;;
66478;SDS011;53294;47.912;13.526;2023-12-14T05:14:33;0.25;;;0.13;;
66478;SDS011;53294;47.912;13.526;2023-12-14T05:17:00;0.30;;;0.10;;
66478;SDS011;53294;47.912;13.526;2023-12-14T05:19:26;0.10;;;0.10;;
66478;SDS011;53294;47.912;13.526;2023-12-14T05:21:53;0.80;;;0.20;;
66478;SDS011;53294;47.912;13.526;2023-12-14T05:31:40;0.03;;;0.03;;
66478;SDS011;53294;47.912;13.526;2023-12-14T05:34:07;0.17;;;0.13;;
66478;SDS011;53294;47.912;13.526;2023-12-14T05:36:34;0.05;;;0.05;;
66478;SDS011;53294;47.912;13.526;2023-12-14T05:39:01;0.52;;;0.10;;
66478;SDS011;53294;47.912;13.526;2023-12-14T05:41:29;0.10;;;0.10;;
66478;SDS011;53294;47.912;13.526;2023-12-14T05:43:56;0.03;;;0.03;;
66478;SDS011;53294;47.912;13.526;2023-12-14T05:46:23;0.32;;;0.30;;
66478;SDS011;53294;47.912;13.526;2023-12-14T05:48:50;0.03;;;0.03;;
66478;SDS011;53294;47.912;13.526;2023-12-14T05:51:32;0.73;;;0.20;;
66478;SDS011;53294;47.912;13.526;2023-12-14T05:53:59;0.63;;;0.20;;
66478;SDS011;53294;47.912;13.526;2023-12-14T05:56:26;0.20;;;0.05;;
66478;SDS011;53294;47.912;13.526;2023-12-14T05:58:53;0.15;;;0.10;;
66478;SDS011;53294;47.912;13.526;2023-12-14T06:01:20;0.20;;;0.10;;
66478;SDS011;53294;47.912;13.526;2023-12-14T06:03:47;0.20;;;0.10;;
66478;SDS011;53294;47.912;13.526;2023-12-14T06:06:14;0.38;;;0.25;;
66478;SDS011;53294;47.912;13.526;2023-12-14T06:08:41;0.20;;;0.20;;
66478;SDS011;53294;47.912;13.526;2023-12-14T06:11:08;0.20;;;0.13;;
66478;SDS011;53294;47.912;13.526;2023-12-14T06:13:35;0.32;;;0.30;;
66478;SDS011;53294;47.912;13.526;2023-12-14T06:16:02;0.55;;;0.17;;
66478;SDS011;53294;47.912;13.526;2023-12-14T06:18:29;0.10;;;0.10;;
66478;SDS011;53294;47.912;13.526;2023-12-14T06:20:57;0.10;;;0.03;;
66478;SDS011;53294;47.912;13.526;2023-12-14T06:23:23;0.43;;;0.30;;
66478;SDS011;53294;47.912;13.526;2023-12-14T06:25:51;0.47;;;0.20;;
66478;SDS011;53294;47.912;13.526;2023-12-14T06:28:18;0.28;;;0.20;;
66478;SDS011;53294;47.912;13.526;2023-12-14T06:30:45;1.40;;;0.22;;
66478;SDS011;53294;47.912;13.526;2023-12-14T06:33:12;0.20;;;0.20;;
66478;SDS011;53294;47.912;13.526;2023-12-14T06:35:39;0.28;;;0.10;;
66478;SDS011;53294;47.912;13.526;2023-12-14T06:38:06;0.32;;;0.20;;
66478;SDS011;53294;47.912;13.526;2023-12-14T06:40:32;0.85;;;0.10;;
66478;SDS011;53294;47.912;13.526;2023-12-14T06:42:59;1.52;;;0.20;;
66478;SDS011;53294;47.912;13.526;2023-12-14T06:45:26;0.38;;;0.10;;
66478;SDS011;53294;47.912;13.526;2023-12-14T06:47:53;0.40;;;0.20;;
66478;SDS011;53294;47.912;13.526;2023-12-14T06:50:20;0.30;;;0.30;;
66478;SDS011;53294;47.912;13.526;2023-12-14T06:52:46;0.10;;;0.10;;
66478;SDS011;53294;47.912;13.526;2023-12-14T06:55:13;0.95;;;0.57;;
66478;SDS011;53294;47.912;13.526;2023-12-14T06:57:44;0.40;;;0.10;;
66478;SDS011;53294;47.912;13.526;2023-12-14T07:00:13;0.45;;;0.20;;
66478;SDS011;53294;47.912;13.526;2023-12-14T07:05:07;10.65;;;0.32;;
66478;SDS011;53294;47.912;13.526;2023-12-14T07:07:34;0.03;;;0.00;;
66478;SDS011;53294;47.912;13.526;2023-12-14T07:10:01;0.32;;;0.20;;
66478;SDS011;53294;47.912;13.526;2023-12-14T07:12:28;0.08;;;0.05;;
66478;SDS011;53294;47.912;13.526;2023-12-14T07:14:54;0.40;;;0.10;;
66478;SDS011;53294;47.912;13.526;2023-12-14T07:17:21;1.23;;;0.35;;
66478;SDS011;53294;47.912;13.526;2023-12-14T07:19:49;0.35;;;0.13;;
66478;SDS011;53294;47.912;13.526;2023-12-14T07:22:17;0.40;;;0.20;;
66478;SDS011;53294;47.912;13.526;2023-12-14T07:24:44;0.30;;;0.20;;
66478;SDS011;53294;47.912;13.526;2023-12-14T07:27:21;0.20;;;0.10;;
66478;SDS011;53294;47.912;13.526;2023-12-14T07:29:48;0.30;;;0.08;;
66478;SDS011;53294;47.912;13.526;2023-12-14T07:32:15;0.25;;;0.20;;
66478;SDS011;53294;47.912;13.526;2023-12-14T07:34:43;0.77;;;0.20;;
66478;SDS011;53294;47.912;13.526;2023-12-14T07:37:10;0.90;;;0.15;;
66478;SDS011;53294;47.912;13.526;2023-12-14T07:39:38;0.15;;;0.10;;
66478;SDS011;53294;47.912;13.526;2023-12-14T07:42:04;0.38;;;0.13;;
66478;SDS011;53294;47.912;13.526;2023-12-14T07:46:59;0.08;;;0.08;;
66478;SDS011;53294;47.912;13.526;2023-12-14T07:49:26;0.63;;;0.20;;
66478;SDS011;53294;47.912;13.526;2023-12-14T07:51:53;0.45;;;0.30;;
66478;SDS011;53294;47.912;13.526;2023-12-14T07:54:20;1.08;;;0.25;;
66478;SDS011;53294;47.912;13.526;2023-12-14T07:56:48;0.35;;;0.17;;
66478;SDS011;53294;47.912;13.526;2023-12-14T07:59:15;0.40;;;0.13;;
66478;SDS011;53294;47.912;13.526;2023-12-14T08:01:43;0.52;;;0.22;;
66478;SDS011;53294;47.912;13.526;2023-12-14T08:04:10;0.73;;;0.45;;
66478;SDS011;53294;47.912;13.526;2023-12-14T08:06:38;0.28;;;0.15;;
66478;SDS011;53294;47.912;13.526;2023-12-14T08:09:08;0.20;;;0.20;;
66478;SDS011;53294;47.912;13.526;2023-12-14T08:11:35;0.73;;;0.50;;
66478;SDS011;53294;47.912;13.526;2023-12-14T08:14:02;0.63;;;0.15;;
66478;SDS011;53294;47.912;13.526;2023-12-14T08:21:23;1.15;;;0.47;;
66478;SDS011;53294;47.912;13.526;2023-12-14T08:23:50;1.40;;;0.93;;
66478;SDS011;53294;47.912;13.526;2023-12-14T08:26:17;0.40;;;0.30;;
66478;SDS011;53294;47.912;13.526;2023-12-14T08:28:44;0.43;;;0.40;;
66478;SDS011;53294;47.912;13.526;2023-12-14T08:31:10;1.15;;;0.32;;
66478;SDS011;53294;47.912;13.526;2023-12-14T08:33:40;2.63;;;0.28;;
66478;SDS011;53294;47.912;13.526;2023-12-14T08:36:09;1.20;;;0.60;;
66478;SDS011;53294;47.912;13.526;2023-12-14T08:38:36;0.32;;;0.22;;
66478;SDS011;53294;47.912;13.526;2023-12-14T08:41:03;0.82;;;0.52;;
66478;SDS011;53294;47.912;13.526;2023-12-14T08:43:30;0.73;;;0.30;;
66478;SDS011;53294;47.912;13.526;2023-12-14T08:45:56;0.68;;;0.28;;
66478;SDS011;53294;47.912;13.526;2023-12-14T08:48:23;1.08;;;0.50;;
66478;SDS011;53294;47.912;13.526;2023-12-14T08:50:51;1.88;;;0.50;;
66478;SDS011;53294;47.912;13.526;2023-12-14T08:53:20;0.57;;;0.25;;
66478;SDS011;53294;47.912;13.526;2023-12-14T08:55:47;0.75;;;0.30;;
66478;SDS011;53294;47.912;13.526;2023-12-14T08:58:14;1.20;;;0.55;;
66478;SDS011;53294;47.912;13.526;2023-12-14T09:00:40;0.80;;;0.45;;
66478;SDS011;53294;47.912;13.526;2023-12-14T09:03:07;0.60;;;0.15;;
66478;SDS011;53294;47.912;13.526;2023-12-14T09:05:35;0.50;;;0.20;;
66478;SDS011;53294;47.912;13.526;2023-12-14T09:08:03;0.82;;;0.20;;
66478;SDS011;53294;47.912;13.526;2023-12-14T09:10:30;0.22;;;0.10;;
66478;SDS011;53294;47.912;13.526;2023-12-14T09:12:57;0.25;;;0.20;;
66478;SDS011;53294;47.912;13.526;2023-12-14T09:15:24;0.82;;;0.22;;
66478;SDS011;53294;47.912;13.526;2023-12-14T09:17:50;0.85;;;0.20;;
66478;SDS011;53294;47.912;13.526;2023-12-14T09:20:17;0.63;;;0.38;;
66478;SDS011;53294;47.912;13.526;2023-12-14T09:22:46;0.45;;;0.22;;
66478;SDS011;53294;47.912;13.526;2023-12-14T09:25:13;2.72;;;0.25;;
66478;SDS011;53294;47.912;13.526;2023-12-14T09:27:40;0.80;;;0.40;;
66478;SDS011;53294;47.912;13.526;2023-12-14T09:30:06;1.25;;;0.25;;
66478;SDS011;53294;47.912;13.526;2023-12-14T09:32:34;0.88;;;0.20;;
66478;SDS011;53294;47.912;13.526;2023-12-14T09:35:01;1.15;;;0.30;;
66478;SDS011;53294;47.912;13.526;2023-12-14T09:37:28;0.65;;;0.22;;
66478;SDS011;53294;47.912;13.526;2023-12-14T09:39:54;0.63;;;0.25;;
66478;SDS011;53294;47.912;13.526;2023-12-14T09:42:21;0.40;;;0.20;;
66478;SDS011;53294;47.912;13.526;2023-12-14T09:44:48;1.27;;;0.50;;
66478;SDS011;53294;47.912;13.526;2023-12-14T09:47:16;1.05;;;0.35;;
66478;SDS011;53294;47.912;13.526;2023-12-14T09:49:43;1.02;;;0.40;;
66478;SDS011;53294;47.912;13.526;2023-12-14T09:52:12;0.73;;;0.40;;
66478;SDS011;53294;47.912;13.526;2023-12-14T09:54:39;1.27;;;0.30;;
66478;SDS011;53294;47.912;13.526;2023-12-14T09:57:06;0.10;;;0.10;;
66478;SDS011;53294;47.912;13.526;2023-12-14T09:59:32;1.35;;;0.20;;
66478;SDS011;53294;47.912;13.526;2023-12-14T10:02:09;1.20;;;0.60;;
66478;SDS011;53294;47.912;13.526;2023-12-14T10:04:37;1.25;;;0.50;;
66478;SDS011;53294;47.912;13.526;2023-12-14T10:07:04;1.30;;;0.40;;
66478;SDS011;53294;47.912;13.526;2023-12-14T10:09:34;1.13;;;0.40;;
66478;SDS011;53294;47.912;13.526;2023-12-14T10:12:04;0.77;;;0.30;;
66478;SDS011;53294;47.912;13.526;2023-12-14T10:14:33;0.98;;;0.50;;
66478;SDS011;53294;47.912;13.526;2023-12-14T10:17:13;0.82;;;0.30;;
66478;SDS011;53294;47.912;13.526;2023-12-14T10:19:43;1.63;;;0.45;;
66478;SDS011;53294;47.912;13.526;2023-12-14T10:22:11;1.10;;;0.30;;
66478;SDS011;53294;47.912;13.526;2023-12-14T10:24:44;1.13;;;0.55;;
66478;SDS011;53294;47.912;13.526;2023-12-14T10:27:14;0.68;;;0.40;;
66478;SDS011;53294;47.912;13.526;2023-12-14T10:29:42;1.13;;;0.70;;
66478;SDS011;53294;47.912;13.526;2023-12-14T10:32:11;1.23;;;0.40;;
66478;SDS011;53294;47.912;13.526;2023-12-14T10:34:38;0.43;;;0.20;;
66478;SDS011;53294;47.912;13.526;2023-12-14T10:37:06;0.38;;;0.35;;
66478;SDS011;53294;47.912;13.526;2023-12-14T10:39:34;2.13;;;0.73;;
66478;SDS011;53294;47.912;13.526;2023-12-14T10:42:02;2.25;;;0.77;;
66478;SDS011;53294;47.912;13.526;2023-12-14T10:44:44;3.47;;;0.40;;
66478;SDS011;53294;47.912;13.526;2023-12-14T10:47:31;0.43;;;0.20;;
66478;SDS011;53294;47.912;13.526;2023-12-14T10:50:00;2.10;;;0.50;;
66478;SDS011;53294;47.912;13.526;2023-12-14T10:52:28;2.33;;;0.70;;
66478;SDS011;53294;47.912;13.526;2023-12-14T10:54:58;1.60;;;0.90;;
66478;SDS011;53294;47.912;13.526;2023-12-14T10:57:31;1.58;;;0.60;;
66478;SDS011;53294;47.912;13.526;2023-12-14T11:00:00;2.25;;;0.90;;
66478;SDS011;53294;47.912;13.526;2023-12-14T11:02:29;2.33;;;0.98;;
66478;SDS011;53294;47.912;13.526;2023-12-14T11:05:03;1.00;;;0.43;;
66478;SDS011;53294;47.912;13.526;2023-12-14T11:08:09;1.70;;;0.75;;
66478;SDS011;53294;47.912;13.526;2023-12-14T11:10:39;1.60;;;0.75;;
66478;SDS011;53294;47.912;13.526;2023-12-14T11:15:39;1.92;;;0.60;;
66478;SDS011;53294;47.912;13.526;2023-12-14T11:23:29;2.35;;;1.00;;
66478;SDS011;53294;47.912;13.526;2023-12-14T11:26:10;1.13;;;1.00;;
66478;SDS011;53294;47.912;13.526;2023-12-14T11:28:38;4.13;;;1.20;;
66478;SDS011;53294;47.912;13.526;2023-12-14T11:31:10;3.22;;;1.70;;
66478;SDS011;53294;47.912;13.526;2023-12-14T11:33:37;2.05;;;1.27;;
66478;SDS011;53294;47.912;13.526;2023-12-14T11:36:10;1.40;;;0.80;;
66478;SDS011;53294;47.912;13.526;2023-12-14T11:38:38;3.10;;;1.25;;
66478;SDS011;53294;47.912;13.526;2023-12-14T11:41:05;3.08;;;1.27;;
66478;SDS011;53294;47.912;13.526;2023-12-14T11:43:39;1.77;;;0.95;;
66478;SDS011;53294;47.912;13.526;2023-12-14T11:46:11;1.95;;;0.93;;
66478;SDS011;53294;47.912;13.526;2023-12-14T11:51:05;2.50;;;0.82;;
66478;SDS011;53294;47.912;13.526;2023-12-14T11:53:32;3.47;;;1.35;;
66478;SDS011;53294;47.912;13.526;2023-12-14T11:56:00;3.88;;;1.10;;
66478;SDS011;53294;47.912;13.526;2023-12-14T11:58:29;1.75;;;0.60;;
66478;SDS011;53294;47.912;13.526;2023-12-14T12:01:15;1.50;;;0.85;;
66478;SDS011;53294;47.912;13.526;2023-12-14T12:03:47;2.75;;;1.40;;
66478;SDS011;53294;47.912;13.526;2023-12-14T12:08:49;2.08;;;1.30;;
66478;SDS011;53294;47.912;13.526;2023-12-14T12:11:20;1.33;;;0.90;;
66478;SDS011;53294;47.912;13.526;2023-12-14T12:13:52;1.58;;;0.68;;
66478;SDS011;53294;47.912;13.526;2023-12-14T12:16:20;1.33;;;0.73;;
66478;SDS011;53294;47.912;13.526;2023-12-14T12:18:47;0.93;;;0.70;;
66478;SDS011;53294;47.912;13.526;2023-12-14T12:21:15;2.38;;;0.93;;
66478;SDS011;53294;47.912;13.526;2023-12-14T12:23:41;1.23;;;0.93;;
66478;SDS011;53294;47.912;13.526;2023-12-14T12:26:08;2.10;;;0.60;;
66478;SDS011;53294;47.912;13.526;2023-12-14T12:28:36;1.15;;;0.68;;
66478;SDS011;53294;47.912;13.526;2023-12-14T12:31:03;1.35;;;0.65;;
66478;SDS011;53294;47.912;13.526;2023-12-14T12:36:04;2.58;;;1.00;;
66478;SDS011;53294;47.912;13.526;2023-12-14T12:38:31;1.77;;;0.98;;
66478;SDS011;53294;47.912;13.526;2023-12-14T12:40:58;1.77;;;1.00;;
66478;SDS011;53294;47.912;13.526;2023-12-14T12:43:27;2.00;;;0.73;;
66478;SDS011;53294;47.912;13.526;2023-12-14T12:45:53;1.45;;;0.80;;
66478;SDS011;53294;47.912;13.526;2023-12-14T12:48:20;3.33;;;0.90;;
66478;SDS011;53294;47.912;13.526;2023-12-14T12:50:51;0.88;;;0.52;;
66478;SDS011;53294;47.912;13.526;2023-12-14T12:53:18;0.40;;;0.35;;
66478;SDS011;53294;47.912;13.526;2023-12-14T12:55:45;4.20;;;0.68;;
66478;SDS011;53294;47.912;13.526;2023-12-14T12:58:12;1.55;;;0.68;;
66478;SDS011;53294;47.912;13.526;2023-12-14T13:00:41;1.60;;;0.55;;
66478;SDS011;53294;47.912;13.526;2023-12-14T13:03:08;1.90;;;0.70;;
66478;SDS011;53294;47.912;13.526;2023-12-14T13:05:36;1.98;;;0.80;;
66478;SDS011;53294;47.912;13.526;2023-12-14T13:08:03;1.45;;;0.43;;
66478;SDS011;53294;47.912;13.526;2023-12-14T13:10:30;1.27;;;0.65;;
66478;SDS011;53294;47.912;13.526;2023-12-14T13:12:58;1.75;;;0.65;;
66478;SDS011;53294;47.912;13.526;2023-12-14T13:15:26;1.98;;;0.90;;
66478;SDS011;53294;47.912;13.526;2023-12-14T13:17:56;1.00;;;0.52;;
66478;SDS011;53294;47.912;13.526;2023-12-14T13:20:23;2.22;;;0.90;;
66478;SDS011;53294;47.912;13.526;2023-12-14T13:22:51;1.50;;;0.60;;
66478;SDS011;53294;47.912;13.526;2023-12-14T13:25:18;0.70;;;0.40;;
66478;SDS011;53294;47.912;13.526;2023-12-14T13:27:45;2.45;;;0.68;;
66478;SDS011;53294;47.912;13.526;2023-12-14T13:30:12;0.65;;;0.30;;
66478;SDS011;53294;47.912;13.526;2023-12-14T13:32:44;1.75;;;0.57;;
66478;SDS011;53294;47.912;13.526;2023-12-14T13:35:11;1.77;;;0.50;;
66478;SDS011;53294;47.912;13.526;2023-12-14T13:37:38;2.97;;;0.60;;
66478;SDS011;53294;47.912;13.526;2023-12-14T13:40:06;0.95;;;0.65;;
66478;SDS011;53294;47.912;13.526;2023-12-14T13:42:33;1.38;;;0.70;;
66478;SDS011;53294;47.912;13.526;2023-12-14T13:45:03;2.17;;;0.73;;
66478;SDS011;53294;47.912;13.526;2023-12-14T13:47:30;2.65;;;0.70;;
66478;SDS011;53294;47.912;13.526;2023-12-14T13:49:56;1.92;;;0.82;;
66478;SDS011;53294;47.912;13.526;2023-12-14T13:52:23;1.27;;;0.68;;
66478;SDS011;53294;47.912;13.526;2023-12-14T13:54:53;1.27;;;0.57;;
66478;SDS011;53294;47.912;13.526;2023-12-14T13:57:22;1.92;;;0.70;;
66478;SDS011;53294;47.912;13.526;2023-12-14T13:59:49;2.15;;;0.55;;
66478;SDS011;53294;47.912;13.526;2023-12-14T14:02:15;0.77;;;0.45;;
66478;SDS011;53294;47.912;13.526;2023-12-14T14:04:42;1.92;;;0.60;;
66478;SDS011;53294;47.912;13.526;2023-12-14T14:07:11;1.35;;;0.50;;
66478;SDS011;53294;47.912;13.526;2023-12-14T14:09:37;2.05;;;0.80;;
66478;SDS011;53294;47.912;13.526;2023-12-14T14:12:04;1.15;;;0.60;;
66478;SDS011;53294;47.912;13.526;2023-12-14T14:14:31;1.35;;;0.40;;
66478;SDS011;53294;47.912;13.526;2023-12-14T14:16:58;1.15;;;0.47;;
66478;SDS011;53294;47.912;13.526;2023-12-14T14:19:25;1.98;;;0.40;;
66478;SDS011;53294;47.912;13.526;2023-12-14T14:21:51;0.98;;;0.55;;
66478;SDS011;53294;47.912;13.526;2023-12-14T14:24:18;2.08;;;0.80;;
66478;SDS011;53294;47.912;13.526;2023-12-14T14:26:45;3.22;;;0.65;;
66478;SDS011;53294;47.912;13.526;2023-12-14T14:29:12;0.47;;;0.30;;
66478;SDS011;53294;47.912;13.526;2023-12-14T14:31:38;1.10;;;0.60;;
66478;SDS011;53294;47.912;13.526;2023-12-14T14:34:05;1.08;;;0.57;;
66478;SDS011;53294;47.912;13.526;2023-12-14T14:36:32;1.40;;;0.50;;
66478;SDS011;53294;47.912;13.526;2023-12-14T14:38:59;0.47;;;0.43;;
66478;SDS011;53294;47.912;13.526;2023-12-14T14:41:25;0.35;;;0.20;;
66478;SDS011;53294;47.912;13.526;2023-12-14T14:43:52;0.40;;;0.30;;
66478;SDS011;53294;47.912;13.526;2023-12-14T14:46:19;0.77;;;0.43;;
66478;SDS011;53294;47.912;13.526;2023-12-14T14:48:46;0.57;;;0.35;;
66478;SDS011;53294;47.912;13.526;2023-12-14T14:51:13;1.25;;;0.50;;
66478;SDS011;53294;47.912;13.526;2023-12-14T14:53:40;0.45;;;0.32;;
66478;SDS011;53294;47.912;13.526;2023-12-14T14:56:10;0.75;;;0.25;;
66478;SDS011;53294;47.912;13.526;2023-12-14T14:58:37;0.52;;;0.22;;
66478;SDS011;53294;47.912;13.526;2023-12-14T15:01:04;1.20;;;0.40;;
66478;SDS011;53294;47.912;13.526;2023-12-14T15:03:31;2.83;;;0.50;;
66478;SDS011;53294;47.912;13.526;2023-12-14T15:05:59;1.20;;;0.40;;
66478;SDS011;53294;47.912;13.526;2023-12-14T15:08:26;0.65;;;0.20;;
66478;SDS011;53294;47.912;13.526;2023-12-14T15:10:53;0.60;;;0.30;;
66478;SDS011;53294;47.912;13.526;2023-12-14T15:13:22;0.10;;;0.10;;
66478;SDS011;53294;47.912;13.526;2023-12-14T15:15:49;0.30;;;0.20;;
66478;SDS011;53294;47.912;13.526;2023-12-14T15:18:15;0.52;;;0.40;;